Time;durP1;ratioP1;P1;durP2;ratioP2;P2;SDS_P1;SDS_P2;PMS_P1;PMS_P2;Temp;Humidity;BMP_temperature;BMP_pressure;BME280_temperature;BME280_humidity;BME280_pressure;Samples;Min_cycle;Max_cycle;Signal;HPM_P1;HPM_P2
2022/12/23 00:00:06;;;;;;;3.38;2.63;;;18.10;51.80;;;;;;4925654;28;20165;-83
2022/12/23 00:02:32;;;;;;;5.20;2.75;;;18.10;51.90;;;;;;4941364;28;20161;-83
2022/12/23 00:04:57;;;;;;;4.47;2.70;;;18.10;51.80;;;;;;4957485;28;20234;-83
2022/12/23 00:07:23;;;;;;;4.03;2.60;;;18.00;51.80;;;;;;4941512;28;20236;-83
2022/12/23 00:09:49;;;;;;;3.25;2.60;;;18.10;51.90;;;;;;4941517;28;20164;-83
2022/12/23 00:17:33;;;;;;;3.35;2.75;;;18.00;51.80;;;;;;4951787;28;20623;-83
2022/12/23 00:19:59;;;;;;;4.38;2.67;;;18.10;51.80;;;;;;4948205;28;20173;-83
2022/12/23 00:25:01;;;;;;;4.57;2.40;;;18.10;51.80;;;;;;4943802;28;20236;-83
2022/12/23 00:27:29;;;;;;;4.47;2.78;;;18.10;51.90;;;;;;4957020;28;20171;-83
2022/12/23 00:29:54;;;;;;;4.32;2.70;;;18.10;51.90;;;;;;4941048;28;20180;-83
2022/12/23 00:32:20;;;;;;;4.13;2.78;;;18.00;51.90;;;;;;4941103;28;20169;-83
2022/12/23 00:34:45;;;;;;;4.95;3.00;;;18.00;51.90;;;;;;4941114;28;20193;-83
2022/12/23 00:37:11;;;;;;;2.97;2.67;;;18.10;51.90;;;;;;4925491;28;20164;-83
2022/12/23 00:45:14;;;;;;;7.32;2.95;;;18.00;52.00;;;;;;4948583;28;20244;-83
2022/12/23 00:50:21;;;;;;;4.78;2.80;;;18.00;52.00;;;;;;4962293;28;20156;-83
2022/12/23 00:52:48;;;;;;;3.70;2.78;;;18.00;52.10;;;;;;4944386;28;20172;-83
2022/12/23 00:55:13;;;;;;;4.10;2.50;;;18.00;52.10;;;;;;4928205;28;20662;-83
2022/12/23 00:57:39;;;;;;;3.33;2.60;;;18.00;52.00;;;;;;4928256;28;20160;-83
2022/12/23 01:00:06;;;;;;;3.55;2.50;;;18.00;52.10;;;;;;4928187;28;20161;-83
2022/12/23 01:07:54;;;;;;;3.88;2.70;;;18.00;52.10;;;;;;4977204;28;20658;-83
2022/12/23 01:10:23;;;;;;;4.30;2.55;;;18.00;52.10;;;;;;4977098;28;20161;-83
2022/12/23 01:12:50;;;;;;;4.13;2.50;;;17.90;52.10;;;;;;4959854;28;20161;-83
2022/12/23 01:15:15;;;;;;;3.22;2.45;;;18.00;52.20;;;;;;4977030;28;20277;-83
2022/12/23 01:17:41;;;;;;;3.75;2.55;;;17.90;52.10;;;;;;4943820;28;20193;-83
2022/12/23 01:20:08;;;;;;;4.20;2.63;;;17.90;52.10;;;;;;4959569;28;20168;-83
2022/12/23 01:22:34;;;;;;;4.05;2.72;;;18.00;52.10;;;;;;4977001;28;20169;-83
2022/12/23 01:24:59;;;;;;;3.30;2.60;;;17.90;52.10;;;;;;4959431;28;20169;-83
2022/12/23 01:27:25;;;;;;;4.25;2.60;;;17.90;52.10;;;;;;4960354;28;20203;-83
2022/12/23 01:29:52;;;;;;;4.25;2.67;;;17.90;52.20;;;;;;4943751;28;20182;-83
2022/12/23 01:32:17;;;;;;;3.40;2.50;;;17.90;52.30;;;;;;4977060;28;20161;-83
2022/12/23 01:34:43;;;;;;;3.97;2.20;;;17.80;52.20;;;;;;4959809;28;20211;-83
2022/12/23 01:37:09;;;;;;;3.97;2.75;;;17.90;52.30;;;;;;4943642;28;20157;-83
2022/12/23 01:39:34;;;;;;;3.92;2.67;;;17.90;52.40;;;;;;4943445;28;20161;-83
2022/12/23 01:44:59;;;;;;;4.25;2.72;;;17.80;52.60;;;;;;4961854;28;20184;-83
2022/12/23 01:47:42;;;;;;;4.05;2.40;;;17.80;52.60;;;;;;4959740;28;20157;-83
2022/12/23 01:50:25;;;;;;;4.07;2.42;;;17.80;52.50;;;;;;4959039;28;20163;-83
2022/12/23 01:53:02;;;;;;;3.75;2.70;;;17.80;52.60;;;;;;4961521;28;20604;-83
2022/12/23 01:55:31;;;;;;;4.20;2.85;;;17.80;52.60;;;;;;4927697;28;20231;-83
2022/12/23 01:58:00;;;;;;;4.28;2.67;;;17.80;52.60;;;;;;4927631;28;20176;-83
2022/12/23 02:05:51;;;;;;;4.13;2.65;;;17.80;52.60;;;;;;4947084;28;20243;-83
2022/12/23 02:11:20;;;;;;;5.22;2.88;;;17.80;53.30;;;;;;4947682;28;20164;-82
2022/12/23 02:16:41;;;;;;;3.67;2.50;;;17.80;52.60;;;;;;4948670;28;20165;-82
2022/12/23 02:19:11;;;;;;;4.15;2.70;;;17.80;52.70;;;;;;4927315;28;20169;-82
2022/12/23 02:22:05;;;;;;;3.78;2.58;;;17.70;52.60;;;;;;4943584;28;20164;-82
2022/12/23 02:25:00;;;;;;;3.10;2.55;;;17.70;52.60;;;;;;4975900;28;20161;-83
2022/12/23 02:27:31;;;;;;;4.25;2.50;;;17.80;52.70;;;;;;4945119;28;20197;-83
2022/12/23 02:30:35;;;;;;;4.30;2.60;;;17.70;52.70;;;;;;4942606;28;20161;-82
2022/12/23 02:33:35;;;;;;;4.93;2.88;;;17.70;52.80;;;;;;4958052;28;20172;-82
2022/12/23 02:36:26;;;;;;;3.40;2.50;;;17.70;52.70;;;;;;4975707;28;20191;-82
2022/12/23 02:39:15;;;;;;;4.80;2.50;;;17.80;52.80;;;;;;4945894;28;20204;-82
2022/12/23 02:41:58;;;;;;;3.70;2.65;;;17.70;52.80;;;;;;4944332;28;20153;-83
2022/12/23 02:44:31;;;;;;;4.20;2.42;;;17.70;52.70;;;;;;4958317;28;20574;-82
2022/12/23 02:47:02;;;;;;;3.20;2.38;;;17.70;52.80;;;;;;4942801;28;20161;-82
2022/12/23 02:49:33;;;;;;;3.17;2.55;;;17.70;52.90;;;;;;4942337;28;20263;-82
2022/12/23 02:52:07;;;;;;;3.95;2.33;;;17.70;52.90;;;;;;4926791;28;20172;-82
2022/12/23 02:54:37;;;;;;;4.53;2.80;;;17.70;53.00;;;;;;4958223;28;20188;-83
2022/12/23 02:57:03;;;;;;;3.28;2.45;;;17.70;52.90;;;;;;4926956;28;20255;-82
2022/12/23 02:59:33;;;;;;;4.97;2.88;;;17.70;53.70;;;;;;4942336;28;20216;-82
2022/12/23 03:01:58;;;;;;;3.42;2.58;;;17.70;52.90;;;;;;4942024;28;20153;-82
2022/12/23 03:04:24;;;;;;;4.20;2.53;;;17.60;52.80;;;;;;4925939;28;20172;-82
2022/12/23 03:06:51;;;;;;;4.85;2.50;;;17.70;52.90;;;;;;4941957;28;20266;-82
2022/12/23 03:09:33;;;;;;;3.55;2.45;;;17.70;52.70;;;;;;4957963;28;20520;-82
2022/12/23 03:12:10;;;;;;;2.95;2.60;;;17.70;52.90;;;;;;4957875;28;20165;-82
2022/12/23 03:14:46;;;;;;;4.25;2.38;;;17.70;52.80;;;;;;4942467;28;20184;-82
2022/12/23 03:17:45;;;;;;;3.63;2.17;;;17.70;52.80;;;;;;4942970;28;20148;-82
2022/12/23 03:20:25;;;;;;;3.47;2.40;;;17.70;52.90;;;;;;4974984;28;20521;-83
2022/12/23 03:23:00;;;;;;;4.13;2.90;;;17.70;52.80;;;;;;4942553;28;20264;-83
2022/12/23 03:25:31;;;;;;;5.65;2.67;;;17.70;53.00;;;;;;4941476;28;20227;-82
2022/12/23 03:28:03;;;;;;;3.67;2.67;;;17.70;53.00;;;;;;4942337;28;20562;-83
2022/12/23 03:30:30;;;;;;;3.17;2.40;;;17.70;52.90;;;;;;4942887;28;20509;-83
2022/12/23 03:33:15;;;;;;;5.13;2.78;;;17.70;52.80;;;;;;4941820;28;20173;-83
2022/12/23 03:35:46;;;;;;;3.83;2.70;;;17.70;52.90;;;;;;4959755;28;20188;-83
2022/12/23 03:38:12;;;;;;;3.38;2.42;;;17.60;52.90;;;;;;4942188;28;20160;-84
2022/12/23 03:40:40;;;;;;;3.50;2.60;;;17.70;52.90;;;;;;4957615;28;20161;-83
2022/12/23 03:43:09;;;;;;;3.00;2.45;;;17.70;52.80;;;;;;4941826;28;20154;-83
2022/12/23 03:45:37;;;;;;;3.55;2.60;;;17.70;52.90;;;;;;4926167;28;20169;-83
2022/12/23 03:48:06;;;;;;;3.08;2.28;;;17.70;53.00;;;;;;4926066;28;20205;-83
2022/12/23 03:50:33;;;;;;;3.78;2.25;;;17.70;52.90;;;;;;4941587;28;20165;-83
2022/12/23 03:53:02;;;;;;;2.95;2.35;;;17.70;52.80;;;;;;4957779;28;20216;-83
2022/12/23 03:55:31;;;;;;;3.35;2.50;;;17.70;53.00;;;;;;4942147;28;20185;-83
2022/12/23 03:58:09;;;;;;;2.70;2.35;;;17.70;53.00;;;;;;4925564;28;20168;-83
2022/12/23 04:00:37;;;;;;;3.25;2.40;;;17.70;53.00;;;;;;4926844;28;20164;-83
2022/12/23 04:03:18;;;;;;;3.67;2.47;;;17.60;53.00;;;;;;4941762;28;20549;-83
2022/12/23 04:05:47;;;;;;;4.28;2.60;;;17.70;53.00;;;;;;4927587;28;20175;-83
2022/12/23 04:08:16;;;;;;;3.15;2.30;;;17.60;52.90;;;;;;4926424;28;20172;-83
2022/12/23 04:10:44;;;;;;;3.42;2.35;;;17.60;52.90;;;;;;4925578;28;20176;-83
2022/12/23 04:13:11;;;;;;;3.28;2.28;;;17.60;53.00;;;;;;4957346;28;20157;-83
2022/12/23 04:15:40;;;;;;;3.13;2.30;;;17.60;53.00;;;;;;4944927;28;20223;-83
2022/12/23 04:18:08;;;;;;;4.32;2.40;;;17.60;53.00;;;;;;4929736;28;20253;-83
2022/12/23 04:20:35;;;;;;;3.55;2.45;;;17.60;52.90;;;;;;4945072;28;20165;-83
2022/12/23 04:23:00;;;;;;;2.55;2.30;;;17.70;53.00;;;;;;4929036;28;20176;-83
2022/12/23 04:25:26;;;;;;;3.95;2.50;;;17.60;52.90;;;;;;4944724;28;20219;-83
2022/12/23 04:27:53;;;;;;;2.85;2.22;;;17.60;52.90;;;;;;4960586;28;20636;-83
2022/12/23 04:30:20;;;;;;;2.60;2.10;;;17.70;52.90;;;;;;4944794;28;20220;-83
2022/12/23 04:32:47;;;;;;;4.05;2.55;;;17.60;53.00;;;;;;4928662;28;20175;-83
2022/12/23 04:35:13;;;;;;;3.05;2.17;;;17.60;53.00;;;;;;4944482;28;20204;-83
2022/12/23 04:37:39;;;;;;;3.22;2.30;;;17.60;53.00;;;;;;4960405;28;20169;-83
2022/12/23 04:40:08;;;;;;;3.20;2.22;;;17.60;53.00;;;;;;4944458;28;20156;-83
2022/12/23 04:42:34;;;;;;;2.63;2.28;;;17.60;53.10;;;;;;4960676;28;20212;-83
2022/12/23 04:45:00;;;;;;;2.67;2.00;;;17.60;53.20;;;;;;4944360;28;20282;-83
2022/12/23 04:47:26;;;;;;;3.67;2.20;;;17.60;53.20;;;;;;4928603;28;20173;-83
2022/12/23 04:49:51;;;;;;;2.92;2.40;;;17.60;53.20;;;;;;4944410;28;20682;-83
2022/12/23 04:52:17;;;;;;;3.55;2.45;;;17.60;53.20;;;;;;4928241;28;20227;-83
2022/12/23 04:54:44;;;;;;;3.00;2.50;;;17.60;53.10;;;;;;4960198;28;20329;-83
2022/12/23 04:57:10;;;;;;;2.90;2.60;;;17.60;53.30;;;;;;4944253;28;20160;-83
2022/12/23 04:59:36;;;;;;;3.10;2.10;;;17.50;53.30;;;;;;4944475;28;20160;-83
2022/12/23 05:02:01;;;;;;;3.53;2.55;;;17.50;53.20;;;;;;4943926;28;20187;-83
2022/12/23 05:04:27;;;;;;;3.13;2.40;;;17.50;53.30;;;;;;4944083;28;20569;-82
2022/12/23 05:06:53;;;;;;;3.25;2.28;;;17.50;53.30;;;;;;4944017;28;20597;-83
2022/12/23 05:09:20;;;;;;;4.40;2.20;;;17.60;53.20;;;;;;4960017;28;20606;-83
2022/12/23 05:11:45;;;;;;;3.97;2.42;;;17.60;53.00;;;;;;4943777;28;20179;-83
2022/12/23 05:14:11;;;;;;;3.03;2.28;;;17.60;53.10;;;;;;4927628;28;20201;-83
2022/12/23 05:16:40;;;;;;;2.60;1.92;;;17.60;53.20;;;;;;4927991;28;20263;-83
2022/12/23 05:19:05;;;;;;;3.40;2.30;;;17.60;53.20;;;;;;4927914;28;20223;-83
2022/12/23 05:21:31;;;;;;;3.03;2.35;;;17.60;53.20;;;;;;4928149;28;20256;-83
2022/12/23 05:23:59;;;;;;;2.95;2.25;;;17.50;53.20;;;;;;4959677;28;20623;-83
2022/12/23 05:26:24;;;;;;;3.50;2.40;;;17.50;53.20;;;;;;4958767;28;20299;-83
2022/12/23 05:28:50;;;;;;;2.88;2.30;;;17.50;53.30;;;;;;4959444;28;20199;-83
2022/12/23 05:31:17;;;;;;;3.67;2.63;;;17.50;53.30;;;;;;4943458;28;20157;-83
2022/12/23 05:33:42;;;;;;;3.80;2.47;;;17.50;53.30;;;;;;4959274;28;20161;-83
2022/12/23 05:36:10;;;;;;;2.70;2.38;;;17.50;53.10;;;;;;4943405;28;20284;-83
2022/12/23 05:38:38;;;;;;;2.65;2.25;;;17.60;53.20;;;;;;4943296;28;20157;-83
2022/12/23 05:41:04;;;;;;;3.45;2.22;;;17.50;53.10;;;;;;4959307;28;20257;-83
2022/12/23 05:43:29;;;;;;;3.28;2.55;;;17.50;53.30;;;;;;4959268;28;20186;-83
2022/12/23 05:45:56;;;;;;;2.45;2.15;;;17.50;53.30;;;;;;4943118;28;20168;-83
2022/12/23 05:48:23;;;;;;;3.58;2.30;;;17.50;53.20;;;;;;4943173;28;20199;-83
2022/12/23 05:50:50;;;;;;;3.08;2.28;;;17.60;53.20;;;;;;4927392;28;20228;-83
2022/12/23 05:53:15;;;;;;;3.00;2.10;;;17.50;53.30;;;;;;4959050;28;20160;-83
2022/12/23 05:55:41;;;;;;;2.70;2.13;;;17.60;53.30;;;;;;4943134;28;20551;-83
2022/12/23 05:58:07;;;;;;;3.30;2.63;;;17.50;53.10;;;;;;4927285;28;20644;-83
2022/12/23 06:00:33;;;;;;;3.25;2.03;;;17.60;53.20;;;;;;4943103;28;20157;-83
2022/12/23 06:02:59;;;;;;;2.33;2.13;;;17.50;53.30;;;;;;4942592;28;20176;-83
2022/12/23 06:05:25;;;;;;;3.33;2.45;;;17.50;53.30;;;;;;4942998;28;20172;-83
2022/12/23 06:07:51;;;;;;;4.50;2.38;;;17.50;53.20;;;;;;4942766;28;20163;-83
2022/12/23 06:10:17;;;;;;;3.65;2.22;;;17.50;53.30;;;;;;4959087;28;20193;-83
2022/12/23 06:12:44;;;;;;;3.00;2.47;;;17.50;53.30;;;;;;4958805;28;20157;-83
2022/12/23 06:15:10;;;;;;;4.15;2.40;;;17.40;53.50;;;;;;4958608;28;20216;-82
2022/12/23 06:17:39;;;;;;;2.97;2.25;;;17.50;53.40;;;;;;4927005;28;20650;-83
2022/12/23 06:20:06;;;;;;;2.65;2.10;;;17.50;53.50;;;;;;4942565;28;20165;-83
2022/12/23 06:22:31;;;;;;;2.80;2.10;;;17.50;53.50;;;;;;4942665;28;20160;-83
2022/12/23 06:24:57;;;;;;;3.10;2.22;;;17.50;53.40;;;;;;4926641;28;20176;-83
2022/12/23 06:27:23;;;;;;;2.40;1.70;;;17.50;53.60;;;;;;4942578;28;20173;-83
2022/12/23 06:29:50;;;;;;;2.67;2.28;;;17.40;53.50;;;;;;4926518;28;20200;-83
2022/12/23 06:32:17;;;;;;;2.90;2.20;;;17.50;53.70;;;;;;4944597;28;20259;-83
2022/12/23 06:34:43;;;;;;;2.80;2.13;;;17.40;53.60;;;;;;4932618;28;20196;-83
2022/12/23 06:37:08;;;;;;;3.25;2.35;;;17.40;53.60;;;;;;4932016;28;20180;-83
2022/12/23 06:39:35;;;;;;;3.38;2.38;;;17.40;53.60;;;;;;4933193;28;20161;-83
2022/12/23 06:42:00;;;;;;;2.85;2.38;;;17.40;53.50;;;;;;4933153;28;20168;-83
2022/12/23 06:44:26;;;;;;;3.63;2.40;;;17.50;53.70;;;;;;4960855;28;20165;-83
2022/12/23 06:46:57;;;;;;;3.35;2.20;;;17.40;53.50;;;;;;4942166;28;20265;-83
2022/12/23 06:49:22;;;;;;;3.72;2.30;;;17.40;53.50;;;;;;4941843;28;20219;-83
2022/12/23 06:51:48;;;;;;;2.60;2.10;;;17.40;53.50;;;;;;4941994;28;20240;-83
2022/12/23 06:54:16;;;;;;;4.65;2.30;;;17.40;53.60;;;;;;4926243;28;20295;-82
2022/12/23 06:56:42;;;;;;;2.65;2.22;;;17.40;53.70;;;;;;4957842;28;20145;-82
2022/12/23 06:59:07;;;;;;;2.63;2.30;;;17.40;53.70;;;;;;4927326;28;20521;-83
2022/12/23 07:01:33;;;;;;;3.67;2.10;;;17.40;53.80;;;;;;4942791;28;20164;-82
2022/12/23 07:04:00;;;;;;;3.55;2.08;;;17.40;53.80;;;;;;4941813;28;20196;-82
2022/12/23 07:06:27;;;;;;;3.47;2.47;;;17.40;53.70;;;;;;4958253;28;20160;-82
2022/12/23 07:08:54;;;;;;;2.67;2.10;;;17.40;53.70;;;;;;4942673;28;20153;-82
2022/12/23 07:11:20;;;;;;;2.33;1.95;;;17.40;53.60;;;;;;4929417;28;20252;-82
2022/12/23 07:13:45;;;;;;;2.78;2.22;;;17.40;53.70;;;;;;4931101;28;20196;-82
2022/12/23 07:16:11;;;;;;;2.97;2.40;;;17.40;53.80;;;;;;4946815;28;20165;-83
2022/12/23 07:18:37;;;;;;;2.60;2.03;;;17.40;53.80;;;;;;4931467;28;20519;-82
2022/12/23 07:21:06;;;;;;;3.33;2.40;;;17.40;53.70;;;;;;4945185;28;20157;-82
2022/12/23 07:23:31;;;;;;;3.15;1.98;;;17.40;53.80;;;;;;4961292;28;20342;-83
2022/12/23 07:25:57;;;;;;;2.70;2.22;;;17.40;53.80;;;;;;4961146;28;20301;-82
2022/12/23 07:28:23;;;;;;;2.20;2.00;;;17.40;53.50;;;;;;4961424;28;20168;-83
2022/12/23 07:30:48;;;;;;;2.50;1.70;;;17.50;53.10;;;;;;4944712;28;20161;-83
2022/12/23 07:33:14;;;;;;;3.30;2.00;;;17.60;52.80;;;;;;4945062;28;20175;-83
2022/12/23 07:35:42;;;;;;;2.25;1.80;;;17.70;52.60;;;;;;4960973;28;20204;-83
2022/12/23 07:38:08;;;;;;;2.80;1.85;;;17.70;52.40;;;;;;4960064;28;20157;-83
2022/12/23 07:40:37;;;;;;;2.25;2.05;;;17.70;52.50;;;;;;4944499;28;20168;-82
2022/12/23 07:43:02;;;;;;;2.05;1.80;;;17.80;52.50;;;;;;4944754;28;20157;-82
2022/12/23 07:45:29;;;;;;;2.90;2.08;;;17.80;52.50;;;;;;4946325;28;20251;-83
2022/12/23 07:47:57;;;;;;;2.95;1.90;;;17.80;52.50;;;;;;4947849;28;20174;-82
2022/12/23 07:50:25;;;;;;;2.47;2.03;;;17.80;52.30;;;;;;4950950;28;20157;-82
2022/12/23 07:52:52;;;;;;;2.67;2.10;;;17.80;52.30;;;;;;4951175;28;20365;-82
2022/12/23 07:55:18;;;;;;;2.08;1.77;;;17.80;52.20;;;;;;4949962;28;20216;-82
2022/12/23 07:57:51;;;;;;;2.38;1.70;;;17.90;52.20;;;;;;4965535;28;20612;-82
2022/12/23 08:00:18;;;;;;;4.80;2.22;;;17.90;52.10;;;;;;4933128;28;20169;-82
2022/12/23 08:02:46;;;;;;;3.90;1.60;;;17.90;52.30;;;;;;4948943;28;20208;-82
2022/12/23 08:05:13;;;;;;;2.15;1.88;;;17.90;52.30;;;;;;4966628;28;20684;-82
2022/12/23 08:07:40;;;;;;;2.58;1.80;;;17.90;52.40;;;;;;4950895;28;20172;-82
2022/12/23 08:10:07;;;;;;;2.40;1.85;;;17.90;52.30;;;;;;4952029;28;20169;-82
2022/12/23 08:12:33;;;;;;;2.70;1.83;;;17.90;52.40;;;;;;4968703;28;20165;-81
2022/12/23 08:14:58;;;;;;;2.78;1.80;;;17.90;52.20;;;;;;4967491;28;20562;-82
2022/12/23 08:17:26;;;;;;;2.22;1.88;;;17.90;52.20;;;;;;4952272;28;20165;-82
2022/12/23 08:19:51;;;;;;;2.85;1.52;;;17.90;52.30;;;;;;4967452;28;20172;-82
2022/12/23 08:22:17;;;;;;;2.03;1.70;;;17.90;51.60;;;;;;4952253;28;20165;-81
2022/12/23 08:24:43;;;;;;;1.98;1.80;;;17.90;51.80;;;;;;4952825;28;20533;-82
2022/12/23 08:27:09;;;;;;;3.83;1.60;;;18.00;52.10;;;;;;4951534;28;20224;-82
2022/12/23 08:29:38;;;;;;;2.40;1.67;;;17.90;51.60;;;;;;4950088;28;20164;-82
2022/12/23 08:32:04;;;;;;;3.60;1.77;;;18.00;52.00;;;;;;4966603;28;20243;-82
2022/12/23 08:34:34;;;;;;;2.45;1.80;;;18.00;51.90;;;;;;4966655;28;20219;-82
2022/12/23 08:37:01;;;;;;;1.50;1.40;;;18.00;52.00;;;;;;4949587;28;20165;-81
2022/12/23 08:39:27;;;;;;;2.13;1.80;;;18.00;51.60;;;;;;4982781;28;20560;-82
2022/12/23 08:41:53;;;;;;;1.90;1.40;;;18.00;52.00;;;;;;4964664;28;20173;-81
2022/12/23 08:44:20;;;;;;;3.05;1.63;;;18.00;51.80;;;;;;4933553;28;20176;-83
2022/12/23 08:46:46;;;;;;;2.67;1.52;;;18.00;51.90;;;;;;4949531;28;20172;-83
2022/12/23 08:49:14;;;;;;;1.48;1.30;;;18.00;51.40;;;;;;4933470;28;20315;-83
2022/12/23 08:51:40;;;;;;;2.47;1.67;;;18.10;51.50;;;;;;4949054;28;20176;-83
2022/12/23 08:54:05;;;;;;;2.42;1.58;;;18.00;51.60;;;;;;4965999;28;20165;-83
2022/12/23 08:56:33;;;;;;;1.80;1.42;;;18.00;51.60;;;;;;4948170;28;20157;-83
2022/12/23 08:58:59;;;;;;;2.20;1.50;;;18.10;51.50;;;;;;4964006;28;20212;-82
2022/12/23 09:01:26;;;;;;;2.40;1.70;;;18.00;51.70;;;;;;4946292;28;20157;-83
2022/12/23 09:03:54;;;;;;;2.50;1.40;;;18.00;51.50;;;;;;4932320;28;20157;-82
2022/12/23 09:06:22;;;;;;;3.05;1.45;;;18.00;51.40;;;;;;4931915;28;20256;-82
2022/12/23 09:08:48;;;;;;;2.40;1.25;;;18.10;51.40;;;;;;4932692;28;20164;-83
2022/12/23 09:11:17;;;;;;;2.05;1.52;;;18.00;51.10;;;;;;4946378;28;20248;-83
2022/12/23 09:13:43;;;;;;;2.30;1.40;;;18.10;51.50;;;;;;4962779;28;20169;-83
2022/12/23 09:16:10;;;;;;;1.80;1.45;;;18.10;51.40;;;;;;4947568;28;20656;-83
2022/12/23 09:18:35;;;;;;;2.17;1.63;;;18.10;51.40;;;;;;4951457;28;20177;-83
2022/12/23 09:21:04;;;;;;;4.57;1.38;;;18.10;51.20;;;;;;4948401;28;20203;-83
2022/12/23 09:23:30;;;;;;;1.45;1.30;;;18.10;51.20;;;;;;4948679;28;20233;-83
2022/12/23 09:25:55;;;;;;;1.48;1.20;;;18.10;51.20;;;;;;4966799;28;20247;-81
2022/12/23 09:28:22;;;;;;;2.47;1.38;;;18.10;51.30;;;;;;4949684;28;20199;-82
2022/12/23 09:30:51;;;;;;;1.73;1.30;;;18.10;51.40;;;;;;4985208;28;20184;-84
2022/12/23 09:33:17;;;;;;;1.65;1.42;;;18.20;51.20;;;;;;4953545;28;20195;-83
2022/12/23 09:35:44;;;;;;;1.45;1.33;;;18.10;51.10;;;;;;4953150;28;20279;-83
2022/12/23 09:38:10;;;;;;;2.22;1.20;;;18.20;51.40;;;;;;4968628;28;20169;-83
2022/12/23 09:40:37;;;;;;;2.00;1.63;;;18.20;51.20;;;;;;4968401;28;20161;-82
2022/12/23 09:43:23;;;;;;;2.13;1.50;;;18.20;51.40;;;;;;4950088;28;20165;-82
2022/12/23 09:46:23;;;;;;;1.42;1.23;;;18.10;51.40;;;;;;4956990;28;20160;-84
2022/12/23 09:48:59;;;;;;;3.40;1.40;;;18.20;51.30;;;;;;4952356;29;20165;-84
2022/12/23 09:51:26;;;;;;;1.38;1.27;;;18.20;51.10;;;;;;4936663;29;20192;-83
2022/12/23 09:54:03;;;;;;;1.75;1.35;;;18.20;51.00;;;;;;4936943;29;20176;-84
2022/12/23 09:57:03;;;;;;;1.75;1.30;;;18.20;51.30;;;;;;4936904;29;20165;-83
2022/12/23 09:59:50;;;;;;;1.70;1.35;;;18.20;51.10;;;;;;4938438;29;20580;-83
2022/12/23 10:02:53;;;;;;;3.28;1.40;;;18.20;51.30;;;;;;4936498;29;20173;-83
2022/12/23 10:05:43;;;;;;;1.98;1.30;;;18.20;51.40;;;;;;4970446;29;20240;-82
2022/12/23 10:08:21;;;;;;;5.53;1.50;;;18.20;51.50;;;;;;4967641;29;20244;-83
2022/12/23 10:10:51;;;;;;;2.55;1.30;;;18.10;51.40;;;;;;4951765;29;20153;-83
2022/12/23 10:13:30;;;;;;;2.55;1.58;;;18.20;51.60;;;;;;4935975;29;20173;-83
2022/12/23 10:16:06;;;;;;;1.90;1.63;;;18.20;51.50;;;;;;4952080;29;20196;-83
2022/12/23 10:18:53;;;;;;;3.47;1.65;;;18.10;51.70;;;;;;4936695;29;20161;-84
2022/12/23 10:21:30;;;;;;;1.40;1.17;;;18.20;51.50;;;;;;4951715;29;20173;-83
2022/12/23 10:23:55;;;;;;;1.13;1.02;;;18.10;51.50;;;;;;4932694;29;20179;-82
2022/12/23 10:26:44;;;;;;;1.75;1.20;;;18.20;51.50;;;;;;4944248;29;20311;-82
2022/12/23 10:29:19;;;;;;;1.80;1.30;;;18.20;51.40;;;;;;4963820;29;20173;-82
2022/12/23 10:32:03;;;;;;;2.50;1.30;;;18.20;51.50;;;;;;4949600;29;20173;-82
2022/12/23 10:34:51;;;;;;;3.53;1.52;;;18.10;50.90;;;;;;4962161;29;20188;-82
2022/12/23 10:37:47;;;;;;;1.50;1.38;;;18.20;51.60;;;;;;4928207;29;20184;-83
2022/12/23 10:40:24;;;;;;;3.78;1.40;;;18.20;51.20;;;;;;4942284;28;20173;-83
2022/12/23 10:43:13;;;;;;;1.35;1.23;;;18.20;51.10;;;;;;4932390;28;20180;-84
2022/12/23 10:46:05;;;;;;;1.85;1.17;;;18.30;51.40;;;;;;4946838;29;20251;-83
2022/12/23 10:48:53;;;;;;;1.70;1.35;;;18.30;51.40;;;;;;4947993;28;20643;-84
2022/12/23 10:51:47;;;;;;;2.92;1.23;;;18.20;51.50;;;;;;4949169;28;20181;-82
2022/12/23 10:54:29;;;;;;;1.67;1.35;;;18.30;51.20;;;;;;4964602;28;20184;-82
2022/12/23 10:57:02;;;;;;;3.17;1.25;;;18.30;51.20;;;;;;4925542;29;20193;-81
2022/12/23 10:59:30;;;;;;;1.42;1.00;;;18.30;51.30;;;;;;4910454;29;20182;-83
2022/12/23 11:02:08;;;;;;;2.72;1.30;;;18.40;51.20;;;;;;4910650;29;20167;-82
2022/12/23 11:04:44;;;;;;;5.30;1.52;;;18.30;51.40;;;;;;4911102;29;20699;-82
2022/12/23 11:07:12;;;;;;;2.45;1.25;;;18.30;51.50;;;;;;4865479;29;20203;-82
2022/12/23 11:09:42;;;;;;;3.10;1.30;;;18.30;51.00;;;;;;4863915;29;20211;-83
2022/12/23 11:12:09;;;;;;;3.63;1.25;;;18.30;51.20;;;;;;4864406;29;20189;-83
2022/12/23 11:14:42;;;;;;;3.97;1.23;;;18.30;51.00;;;;;;4865429;29;20664;-82
2022/12/23 11:17:25;;;;;;;1.73;1.27;;;18.30;51.00;;;;;;4862365;29;20675;-83
2022/12/23 11:20:13;;;;;;;5.15;1.20;;;18.30;50.90;;;;;;4859336;29;20295;-81
2022/12/23 11:22:55;;;;;;;3.08;1.27;;;18.30;51.20;;;;;;4879683;29;20188;-82
2022/12/23 11:25:33;;;;;;;2.65;1.15;;;18.30;51.30;;;;;;4849666;29;20220;-82
2022/12/23 11:28:04;;;;;;;4.57;1.00;;;18.30;51.20;;;;;;4851354;29;20199;-83
2022/12/23 11:30:37;;;;;;;1.73;1.02;;;18.30;51.20;;;;;;4847863;29;20711;-82
2022/12/23 11:33:03;;;;;;;3.67;1.10;;;18.30;50.80;;;;;;4916796;29;20322;-82
2022/12/23 11:35:34;;;;;;;5.93;1.10;;;18.30;51.40;;;;;;4886205;29;20297;-82
2022/12/23 11:38:02;;;;;;;4.35;1.20;;;18.30;51.10;;;;;;4888298;29;20266;-82
2022/12/23 11:40:34;;;;;;;5.70;1.10;;;18.30;51.00;;;;;;4888587;29;20246;-82
2022/12/23 11:43:02;;;;;;;5.05;1.23;;;18.30;51.20;;;;;;4874035;29;20183;-82
2022/12/23 11:45:33;;;;;;;7.82;1.35;;;18.30;51.30;;;;;;4890791;29;20600;-82
2022/12/23 11:48:00;;;;;;;2.28;1.40;;;18.30;51.10;;;;;;4889594;29;20261;-82
2022/12/23 11:50:38;;;;;;;9.30;1.48;;;18.30;50.60;;;;;;4902439;28;20616;-81
2022/12/23 11:53:13;;;;;;;8.82;1.50;;;18.40;51.10;;;;;;4933251;28;20176;-82
2022/12/23 11:55:45;;;;;;;11.18;1.85;;;18.30;51.30;;;;;;4963400;28;20614;-82
2022/12/23 11:58:15;;;;;;;9.10;2.22;;;18.30;51.30;;;;;;4930818;28;20176;-82
2022/12/23 12:00:42;;;;;;;15.40;1.65;;;18.30;51.00;;;;;;4964609;28;20153;-83
2022/12/23 12:03:22;;;;;;;4.22;1.27;;;18.30;50.70;;;;;;4949402;28;20154;-81
2022/12/23 12:05:52;;;;;;;13.60;1.40;;;18.40;51.00;;;;;;4966674;28;20153;-81
2022/12/23 12:08:21;;;;;;;10.10;1.80;;;18.40;50.80;;;;;;4933379;28;20169;-80
2022/12/23 12:10:50;;;;;;;4.65;1.17;;;18.40;50.80;;;;;;4925348;29;20244;-83
2022/12/23 12:13:27;;;;;;;7.65;1.35;;;18.40;50.90;;;;;;4942862;29;20204;-82
2022/12/23 12:16:02;;;;;;;5.45;1.50;;;18.40;50.50;;;;;;4940457;28;20295;-82
2022/12/23 12:18:27;;;;;;;3.63;1.40;;;18.40;50.70;;;;;;4945525;28;20164;-82
2022/12/23 12:20:57;;;;;;;5.07;1.45;;;18.40;50.70;;;;;;4943721;28;20311;-82
2022/12/23 12:23:28;;;;;;;5.75;1.40;;;18.40;51.40;;;;;;4927198;28;20204;-82
2022/12/23 12:25:57;;;;;;;6.60;1.25;;;18.40;50.80;;;;;;4927579;28;20224;-83
2022/12/23 12:28:31;;;;;;;5.15;1.20;;;18.40;50.70;;;;;;4926656;28;20192;-82
2022/12/23 12:31:04;;;;;;;7.68;1.55;;;18.40;50.40;;;;;;4943416;28;20212;-81
2022/12/23 12:33:34;;;;;;;4.95;1.38;;;18.40;50.50;;;;;;4957941;28;20168;-82
2022/12/23 12:36:13;;;;;;;9.98;1.33;;;18.40;50.30;;;;;;4944527;28;20195;-82
2022/12/23 12:38:39;;;;;;;7.07;1.38;;;18.40;50.40;;;;;;4930754;28;20176;-82
2022/12/23 12:41:16;;;;;;;3.17;1.08;;;18.40;50.30;;;;;;4961186;28;20161;-82
2022/12/23 12:43:56;;;;;;;9.65;1.50;;;18.40;50.40;;;;;;4946127;28;20171;-81
2022/12/23 12:46:46;;;;;;;4.78;1.35;;;18.40;50.30;;;;;;4946982;28;20165;-81
2022/12/23 12:49:19;;;;;;;3.28;1.20;;;18.40;50.10;;;;;;4937572;29;20224;-82
2022/12/23 12:51:48;;;;;;;4.07;1.23;;;18.40;50.00;;;;;;4933467;29;20169;-82
2022/12/23 12:54:24;;;;;;;3.22;1.27;;;18.40;50.20;;;;;;4948352;29;20205;-82
2022/12/23 12:56:53;;;;;;;5.03;1.10;;;18.40;50.30;;;;;;4930543;28;20251;-82
2022/12/23 12:59:20;;;;;;;4.22;1.13;;;18.40;50.50;;;;;;4928614;28;20285;-83
2022/12/23 13:02:23;;;;;;;6.03;1.30;;;18.40;50.10;;;;;;4960110;28;20156;-82
2022/12/23 13:05:02;;;;;;;5.38;1.15;;;18.40;50.40;;;;;;4946250;28;20283;-82
2022/12/23 13:07:39;;;;;;;7.13;1.40;;;18.40;50.30;;;;;;4944617;28;20156;-82
2022/12/23 13:10:38;;;;;;;3.97;1.40;;;18.40;50.50;;;;;;4930184;28;20168;-81
2022/12/23 13:13:15;;;;;;;3.78;1.02;;;18.40;50.40;;;;;;4949215;28;20316;-82
2022/12/23 13:15:58;;;;;;;4.22;1.30;;;18.40;50.60;;;;;;4948762;28;20223;-83
2022/12/23 13:18:31;;;;;;;7.38;1.27;;;18.40;50.60;;;;;;4944900;28;20207;-82
2022/12/23 13:21:30;;;;;;;4.63;1.10;;;18.40;50.50;;;;;;4947026;28;20607;-82
2022/12/23 13:24:07;;;;;;;5.80;1.42;;;18.40;50.30;;;;;;4962605;28;20153;-82
2022/12/23 13:26:39;;;;;;;3.53;1.23;;;18.40;50.40;;;;;;4947456;28;20224;-82
2022/12/23 13:29:26;;;;;;;2.58;0.93;;;18.40;49.30;;;;;;4930599;28;20172;-83
2022/12/23 13:32:18;;;;;;;3.58;0.80;;;18.40;49.60;;;;;;4960064;28;20188;-82
2022/12/23 13:35:03;;;;;;;2.15;1.00;;;18.40;49.70;;;;;;4934428;28;20382;-82
2022/12/23 13:37:41;;;;;;;3.50;1.10;;;18.40;50.10;;;;;;4946451;28;20152;-82
2022/12/23 13:40:43;;;;;;;3.17;1.02;;;18.40;49.70;;;;;;4945179;28;20180;-82